createdAt,value
2019-01-04T00:00:18.673Z,0.61
2019-01-04T00:02:44.619Z,0.57
2019-01-04T00:05:12.780Z,0.56
2019-01-04T00:07:39.478Z,0.60
2019-01-04T00:10:05.522Z,0.61
2019-01-04T00:12:32.683Z,0.59
2019-01-04T00:14:58.704Z,0.56
2019-01-04T00:17:24.641Z,0.53
2019-01-04T00:19:50.970Z,0.50
2019-01-04T00:22:17.157Z,0.48
2019-01-04T00:24:43.100Z,0.45
2019-01-04T00:27:09.035Z,0.43
2019-01-04T00:29:35.017Z,0.38
2019-01-04T00:32:00.979Z,0.33
2019-01-04T00:34:27.034Z,0.28
2019-01-04T00:36:53.049Z,0.23
2019-01-04T00:39:20.387Z,0.17
2019-01-04T00:41:46.424Z,0.12
2019-01-04T00:44:12.409Z,0.06
2019-01-04T00:46:38.342Z,0.01
2019-01-04T00:49:04.288Z,-0.06
2019-01-04T00:51:30.273Z,-0.08
2019-01-04T00:53:56.226Z,-0.10
2019-01-04T00:56:32.291Z,-0.12
2019-01-04T00:59:05.138Z,-0.14
2019-01-04T01:01:37.790Z,-0.17
2019-01-04T01:04:29.345Z,-0.21
2019-01-04T01:07:28.680Z,-0.22
2019-01-04T01:09:58.432Z,-0.26
2019-01-04T01:12:46.555Z,-0.27
2019-01-04T01:15:25.522Z,-0.30
2019-01-04T01:18:18.067Z,-0.30
2019-01-04T01:21:10.722Z,-0.31
2019-01-04T01:23:58.657Z,-0.29
2019-01-04T01:26:46.143Z,-0.26
2019-01-04T01:29:38.898Z,-0.22
2019-01-04T01:32:34.545Z,-0.17
2019-01-04T01:35:38.379Z,-0.14
2019-01-04T01:38:32.050Z,-0.06
2019-01-04T01:41:37.488Z,0.01
2019-01-04T01:44:30.450Z,0.06
2019-01-04T01:47:09.394Z,0.14
2019-01-04T01:49:42.038Z,0.18
2019-01-04T01:52:17.820Z,0.20
2019-01-04T01:54:44.080Z,0.20
2019-01-04T01:57:10.210Z,0.23
2019-01-04T01:59:36.241Z,0.25
2019-01-04T02:02:02.273Z,0.28
2019-01-04T02:04:28.204Z,0.31
2019-01-04T02:06:57.080Z,0.34
2019-01-04T02:09:24.813Z,0.39
2019-01-04T02:11:50.747Z,0.45
2019-01-04T02:14:17.004Z,0.48
2019-01-04T02:16:42.951Z,0.52
2019-01-04T02:19:08.887Z,0.56
2019-01-04T02:21:36.879Z,0.60
2019-01-04T02:24:02.826Z,0.63
2019-01-04T02:26:29.780Z,0.63
2019-01-04T02:28:55.798Z,0.66
2019-01-04T02:31:22.645Z,0.69
2019-01-04T02:33:48.595Z,0.72
2019-01-04T02:36:15.013Z,0.76
2019-01-04T02:38:40.959Z,0.78
2019-01-04T02:41:06.904Z,0.82
2019-01-04T02:43:32.888Z,0.82
2019-01-04T02:45:59.936Z,0.84
2019-01-04T02:48:25.891Z,0.86
2019-01-04T02:50:53.015Z,0.84
2019-01-04T02:53:18.960Z,0.80
2019-01-04T02:55:46.511Z,0.71
2019-01-04T02:58:12.489Z,0.63
2019-01-04T03:00:38.636Z,0.57
2019-01-04T03:03:04.574Z,0.53
2019-01-04T03:05:30.830Z,0.49
2019-01-04T03:07:56.739Z,0.49
2019-01-04T03:10:22.690Z,0.51
2019-01-04T03:12:48.713Z,0.52
2019-01-04T03:15:14.668Z,0.52
2019-01-04T03:17:40.609Z,0.48
2019-01-04T03:20:06.606Z,0.46
2019-01-04T03:22:33.188Z,0.46
2019-01-04T03:24:59.073Z,0.43
2019-01-04T03:27:25.060Z,0.41
2019-01-04T03:29:51.011Z,0.44
2019-01-04T03:32:16.967Z,0.48
2019-01-04T03:34:43.182Z,0.49
2019-01-04T03:37:09.109Z,0.50
2019-01-04T03:39:35.051Z,0.44
2019-01-04T03:42:01.038Z,0.41
2019-01-04T03:44:27.040Z,0.39
2019-01-04T03:46:53.026Z,0.39
2019-01-04T03:49:18.999Z,0.35
2019-01-04T03:51:44.936Z,0.28
2019-01-04T03:54:10.897Z,0.20
2019-01-04T03:56:36.887Z,0.15
2019-01-04T03:59:02.899Z,0.10
2019-01-04T04:01:29.103Z,0.12
2019-01-04T04:03:55.096Z,0.10
2019-01-04T04:06:21.025Z,0.04
2019-01-04T04:08:46.959Z,0.03
2019-01-04T04:11:13.596Z,-0.06
2019-01-04T04:13:39.535Z,-0.06
2019-01-04T04:16:05.480Z,-0.05
2019-01-04T04:18:32.390Z,-0.08
2019-01-04T04:20:58.340Z,-0.09
2019-01-04T04:23:24.669Z,-0.10
2019-01-04T04:25:50.653Z,-0.13
2019-01-04T04:28:16.788Z,-0.12
2019-01-04T04:30:42.720Z,-0.15
2019-01-04T04:33:08.709Z,-0.17
2019-01-04T04:35:34.666Z,-0.14
2019-01-04T04:38:00.606Z,-0.07
2019-01-04T04:40:26.625Z,-0.05
2019-01-04T04:42:52.552Z,-0.02
2019-01-04T04:45:18.501Z,-0.04
2019-01-04T04:47:45.381Z,-0.03
2019-01-04T04:50:13.220Z,-0.02
2019-01-04T04:52:39.341Z,-0.02
2019-01-04T04:55:05.320Z,-0.03
2019-01-04T04:57:31.362Z,-0.02
2019-01-04T04:59:57.301Z,-0.05
2019-01-04T05:02:23.310Z,-0.03
2019-01-04T05:04:49.246Z,-0.03
2019-01-04T05:07:15.390Z,-0.03
2019-01-04T05:09:41.872Z,-0.05
2019-01-04T05:12:07.807Z,-0.03
2019-01-04T05:14:33.848Z,-0.03
2019-01-04T05:16:59.830Z,-0.05
2019-01-04T05:19:25.851Z,-0.07
2019-01-04T05:21:51.851Z,-0.04
2019-01-04T05:24:18.120Z,0.02
2019-01-04T05:26:45.548Z,-0.01
2019-01-04T05:29:11.523Z,-0.02
2019-01-04T05:31:37.708Z,-0.02
2019-01-04T05:34:04.055Z,-0.01
2019-01-04T05:36:30.194Z,0.00
2019-01-04T05:38:56.393Z,-0.01
2019-01-04T05:41:22.330Z,-0.02
2019-01-04T05:43:48.575Z,-0.01
2019-01-04T05:46:14.583Z,0.00
2019-01-04T05:48:40.520Z,0.04
2019-01-04T05:51:06.517Z,0.06
2019-01-04T05:53:32.648Z,0.07
2019-01-04T05:55:58.776Z,0.09
2019-01-04T05:58:25.283Z,0.11
2019-01-04T06:00:51.336Z,0.17
2019-01-04T06:03:17.761Z,0.34
2019-01-04T06:05:43.711Z,0.45
2019-01-04T06:08:10.804Z,0.46
2019-01-04T06:10:36.789Z,0.46
2019-01-04T06:13:02.736Z,0.46
2019-01-04T06:15:28.727Z,0.49
2019-01-04T06:17:54.674Z,0.47
2019-01-04T06:20:20.627Z,0.45
2019-01-04T06:22:46.618Z,0.46
2019-01-04T06:25:13.464Z,0.47
2019-01-04T06:27:39.466Z,0.47
2019-01-04T06:30:07.497Z,0.47
2019-01-04T06:32:33.444Z,0.48
2019-01-04T06:35:00.050Z,0.47
2019-01-04T06:37:26.054Z,0.48
2019-01-04T06:39:51.994Z,0.47
2019-01-04T06:42:17.951Z,0.45
2019-01-04T06:44:44.352Z,0.46
2019-01-04T06:47:12.768Z,0.52
2019-01-04T06:49:38.811Z,0.61
2019-01-04T06:52:05.876Z,0.72
2019-01-04T06:55:09.355Z,0.70
2019-01-04T06:57:35.341Z,0.67
2019-01-04T07:00:04.313Z,0.64
2019-01-04T07:02:31.668Z,0.63
2019-01-04T07:04:57.666Z,0.62
2019-01-04T07:07:23.922Z,0.65
2019-01-04T07:09:50.251Z,0.65
2019-01-04T07:12:16.408Z,0.69
2019-01-04T07:14:42.664Z,0.70
2019-01-04T07:17:08.633Z,0.71
2019-01-04T07:19:34.946Z,0.71
2019-01-04T07:22:01.005Z,0.71
2019-01-04T07:24:27.262Z,0.71
2019-01-04T07:26:53.320Z,0.73
2019-01-04T07:29:19.264Z,0.75
2019-01-04T07:31:45.983Z,0.77
2019-01-04T07:34:12.905Z,0.82
2019-01-04T07:36:38.977Z,0.85
2019-01-04T07:39:05.139Z,0.86
2019-01-04T07:41:31.133Z,0.88
2019-01-04T07:43:57.082Z,0.91
2019-01-04T07:46:23.373Z,0.95
2019-01-04T07:48:49.839Z,0.98
2019-01-04T07:51:17.718Z,1.00
2019-01-04T07:53:43.670Z,1.05
2019-01-04T07:56:10.350Z,1.09
2019-01-04T07:58:36.943Z,1.14
2019-01-04T08:01:03.284Z,1.18
2019-01-04T08:03:29.285Z,1.20
2019-01-04T08:05:55.255Z,1.23
2019-01-04T08:08:21.201Z,1.27
2019-01-04T08:10:47.194Z,1.32
2019-01-04T08:13:13.944Z,1.36
2019-01-04T08:15:39.888Z,1.41
2019-01-04T08:18:07.012Z,1.43
2019-01-04T08:20:33.401Z,1.47
2019-01-04T08:22:59.353Z,1.54
2019-01-04T08:25:25.746Z,1.59
2019-01-04T08:27:51.761Z,1.65
2019-01-04T08:30:17.710Z,1.70
2019-01-04T08:32:43.684Z,1.75
2019-01-04T08:35:09.925Z,1.80
2019-01-04T08:37:35.886Z,1.81
2019-01-04T08:40:02.097Z,1.87
2019-01-04T08:42:28.384Z,1.90
2019-01-04T08:44:55.232Z,1.96
2019-01-04T08:47:21.348Z,2.02
2019-01-04T08:49:48.502Z,2.04
2019-01-04T08:52:14.454Z,2.08
2019-01-04T08:54:40.744Z,2.12
2019-01-04T08:57:06.674Z,2.19
2019-01-04T08:59:32.732Z,2.19
2019-01-04T09:01:59.045Z,2.22
2019-01-04T09:04:25.293Z,2.25
2019-01-04T09:06:52.337Z,2.24
2019-01-04T09:09:18.321Z,2.27
2019-01-04T09:11:44.447Z,2.30
2019-01-04T09:14:10.436Z,2.34
2019-01-04T09:16:36.420Z,2.37
2019-01-04T09:19:02.366Z,2.41
2019-01-04T09:21:28.387Z,2.45
2019-01-04T09:23:54.425Z,2.44
2019-01-04T09:26:20.966Z,2.47
2019-01-04T09:28:46.992Z,2.49
2019-01-04T09:31:12.973Z,2.53
2019-01-04T09:33:38.932Z,2.55
2019-01-04T09:36:04.942Z,2.58
2019-01-04T09:38:33.499Z,2.63
2019-01-04T09:41:22.945Z,2.67
2019-01-04T09:43:51.349Z,2.71
2019-01-04T09:46:17.313Z,2.76
2019-01-04T09:48:44.835Z,2.82
2019-01-04T09:51:10.951Z,2.87
2019-01-04T09:53:39.064Z,2.88
2019-01-04T09:56:05.216Z,2.88
2019-01-04T09:58:34.137Z,2.87
2019-01-04T10:01:04.039Z,2.88
2019-01-04T10:03:30.498Z,2.90
2019-01-04T10:05:56.511Z,2.92
2019-01-04T10:08:23.077Z,2.93
2019-01-04T10:10:49.008Z,2.94
2019-01-04T10:13:15.498Z,2.93
2019-01-04T10:15:44.663Z,2.93
2019-01-04T10:18:10.612Z,2.91
2019-01-04T10:20:36.905Z,2.92
2019-01-04T10:23:03.176Z,2.94
2019-01-04T10:25:29.117Z,2.94
2019-01-04T10:27:55.143Z,2.95
2019-01-04T10:30:23.599Z,2.95
2019-01-04T10:32:49.545Z,2.96
2019-01-04T10:35:15.549Z,2.97
2019-01-04T10:37:41.630Z,2.97
2019-01-04T10:40:11.025Z,2.95
2019-01-04T10:42:35.814Z,2.97
2019-01-04T10:45:03.252Z,2.98
2019-01-04T10:47:29.205Z,2.96
2019-01-04T10:49:56.735Z,2.96
2019-01-04T10:52:24.089Z,2.96
2019-01-04T10:54:50.332Z,2.97
2019-01-04T10:57:16.441Z,2.95
2019-01-04T10:59:42.976Z,2.98
2019-01-04T11:02:09.524Z,3.00
2019-01-04T11:04:35.500Z,3.02
2019-01-04T11:07:01.449Z,3.04
2019-01-04T11:09:27.396Z,3.04
2019-01-04T11:11:53.404Z,3.04
2019-01-04T11:14:19.690Z,2.98
2019-01-04T11:16:45.642Z,2.93
2019-01-04T11:19:12.048Z,2.88
2019-01-04T11:21:38.928Z,2.86
2019-01-04T11:24:14.783Z,2.87
2019-01-04T11:26:44.544Z,2.89
2019-01-04T11:29:29.298Z,2.91
2019-01-04T11:32:20.593Z,2.91
2019-01-04T11:34:53.989Z,2.91
2019-01-04T11:37:29.385Z,2.85
2019-01-04T11:40:28.223Z,2.83
2019-01-04T11:43:07.201Z,2.82
2019-01-04T11:45:37.292Z,2.80
2019-01-04T11:48:12.856Z,2.79
2019-01-04T11:50:48.447Z,2.78
2019-01-04T11:53:15.513Z,2.78
2019-01-04T11:55:41.469Z,2.80
2019-01-04T11:58:07.974Z,2.85
2019-01-04T12:00:33.937Z,2.85
2019-01-04T12:02:59.884Z,2.86
2019-01-04T12:05:25.910Z,2.92
2019-01-04T12:07:51.852Z,3.00
2019-01-04T12:10:17.805Z,3.02
2019-01-04T12:12:43.895Z,3.02
2019-01-04T12:15:09.854Z,3.08
2019-01-04T12:17:35.874Z,3.15
2019-01-04T12:20:02.755Z,3.18
2019-01-04T12:22:30.037Z,3.28
2019-01-04T12:24:56.087Z,3.32
2019-01-04T12:27:22.471Z,3.32
2019-01-04T12:29:48.568Z,3.35
2019-01-04T12:32:16.458Z,3.37
2019-01-04T12:34:42.477Z,3.36
2019-01-04T12:37:10.961Z,3.40
2019-01-04T12:39:36.931Z,3.42
2019-01-04T12:42:03.462Z,3.40
2019-01-04T12:44:29.492Z,3.40
2019-01-04T12:46:55.440Z,3.41
2019-01-04T12:49:21.464Z,3.41
2019-01-04T12:51:47.414Z,3.47
2019-01-04T12:54:13.370Z,3.49
2019-01-04T12:56:39.665Z,3.57
2019-01-04T12:59:05.719Z,3.68
2019-01-04T13:01:31.671Z,3.82
2019-01-04T13:03:57.735Z,4.06
2019-01-04T13:06:23.737Z,4.56
2019-01-04T13:08:49.760Z,4.80
2019-01-04T13:11:16.122Z,4.81
2019-01-04T13:13:42.085Z,4.77
2019-01-04T13:16:08.339Z,4.81
2019-01-04T13:18:34.667Z,4.66
2019-01-04T13:21:00.627Z,4.48
2019-01-04T13:23:26.689Z,4.36
2019-01-04T13:25:52.714Z,4.23
2019-01-04T13:28:19.159Z,4.11
2019-01-04T13:30:45.727Z,3.98
2019-01-04T13:33:13.891Z,3.91
2019-01-04T13:35:39.938Z,3.85
2019-01-04T13:38:05.987Z,3.83
2019-01-04T13:40:31.975Z,3.80
2019-01-04T13:42:58.137Z,3.77
2019-01-04T13:45:24.089Z,3.71
2019-01-04T13:47:51.996Z,3.69
2019-01-04T13:50:18.278Z,3.65
2019-01-04T13:52:44.433Z,3.62
2019-01-04T13:55:10.442Z,3.59
2019-01-04T13:57:36.409Z,3.58
2019-01-04T14:00:03.675Z,3.55
2019-01-04T14:02:29.665Z,3.51
2019-01-04T14:04:55.625Z,3.52
2019-01-04T14:07:21.576Z,3.51
2019-01-04T14:09:47.871Z,3.50
2019-01-04T14:12:13.828Z,3.48
2019-01-04T14:14:39.829Z,3.45
2019-01-04T14:17:05.809Z,3.42
2019-01-04T14:19:31.755Z,3.39
2019-01-04T14:21:57.908Z,3.35
2019-01-04T14:24:23.901Z,3.33
2019-01-04T14:26:49.874Z,3.31
2019-01-04T14:29:15.811Z,3.28
2019-01-04T14:31:41.914Z,3.26
2019-01-04T14:34:08.315Z,3.25
2019-01-04T14:36:34.266Z,3.25
2019-01-04T14:39:00.394Z,3.25
2019-01-04T14:41:26.453Z,3.25
2019-01-04T14:43:52.410Z,3.25
2019-01-04T14:46:18.436Z,3.25
2019-01-04T14:48:44.805Z,3.23
2019-01-04T14:51:10.760Z,3.22
2019-01-04T14:53:36.765Z,3.20
2019-01-04T14:56:02.873Z,3.18
2019-01-04T14:58:29.124Z,3.20
2019-01-04T15:00:55.157Z,3.21
2019-01-04T15:03:21.096Z,3.22
2019-01-04T15:05:50.447Z,3.22
2019-01-04T15:08:15.135Z,3.25
2019-01-04T15:10:41.072Z,3.29
2019-01-04T15:13:07.300Z,3.29
2019-01-04T15:15:33.301Z,3.32
2019-01-04T15:17:59.324Z,3.34
2019-01-04T15:20:25.479Z,3.33
2019-01-04T15:22:51.510Z,3.34
2019-01-04T15:25:17.557Z,3.33
2019-01-04T15:27:43.527Z,3.33
2019-01-04T15:30:10.015Z,3.31
2019-01-04T15:32:35.966Z,3.30
2019-01-04T15:35:02.298Z,3.30
2019-01-04T15:37:28.303Z,3.30
2019-01-04T15:39:54.281Z,3.31
2019-01-04T15:42:20.236Z,3.32
2019-01-04T15:44:46.363Z,3.34
2019-01-04T15:47:12.317Z,3.36
2019-01-04T15:49:38.967Z,3.36
2019-01-04T15:52:04.968Z,3.37
2019-01-04T15:54:30.936Z,3.38
2019-01-04T15:56:57.133Z,3.38
2019-01-04T15:59:23.290Z,3.38
2019-01-04T16:01:49.281Z,3.40
2019-01-04T16:04:15.347Z,3.39
2019-01-04T16:06:41.768Z,3.41
2019-01-04T16:09:07.715Z,3.43
2019-01-04T16:11:33.790Z,3.43
2019-01-04T16:14:01.274Z,3.43
2019-01-04T16:16:27.799Z,3.44
2019-01-04T16:18:54.381Z,3.43
2019-01-04T16:21:20.564Z,3.43
2019-01-04T16:23:46.959Z,3.43
2019-01-04T16:26:13.417Z,3.43
2019-01-04T16:28:39.938Z,3.42
2019-01-04T16:31:06.030Z,3.42
2019-01-04T16:33:33.933Z,3.42
2019-01-04T16:36:00.744Z,3.43
2019-01-04T16:38:26.743Z,3.44
2019-01-04T16:40:52.799Z,3.46
2019-01-04T16:43:18.808Z,3.48
2019-01-04T16:45:45.551Z,3.48
2019-01-04T16:48:11.600Z,3.48
2019-01-04T16:50:38.926Z,3.49
2019-01-04T16:53:05.671Z,3.51
2019-01-04T16:55:31.649Z,3.50
2019-01-04T16:57:57.649Z,3.50
2019-01-04T17:00:23.802Z,3.49
2019-01-04T17:02:50.668Z,3.48
2019-01-04T17:05:17.861Z,3.44
2019-01-04T17:07:45.732Z,3.45
2019-01-04T17:10:12.084Z,3.46
2019-01-04T17:12:39.119Z,3.47
2019-01-04T17:15:05.270Z,3.46
2019-01-04T17:17:32.539Z,3.47
2019-01-04T17:19:58.939Z,3.44
2019-01-04T17:22:25.105Z,3.46
2019-01-04T17:24:51.058Z,3.45
2019-01-04T17:27:17.060Z,3.44
2019-01-04T17:29:43.009Z,3.42
2019-01-04T17:32:09.657Z,3.38
2019-01-04T17:34:35.896Z,3.35
2019-01-04T17:37:03.628Z,3.35
2019-01-04T17:39:31.503Z,3.37
2019-01-04T17:41:57.510Z,3.38
2019-01-04T17:44:23.463Z,3.39
2019-01-04T17:46:49.999Z,3.41
2019-01-04T17:49:16.460Z,3.43
2019-01-04T17:51:42.795Z,3.43
2019-01-04T17:54:08.750Z,3.45
2019-01-04T17:56:34.785Z,3.45
2019-01-04T17:59:02.318Z,3.45
2019-01-04T18:01:28.276Z,3.44
2019-01-04T18:03:54.297Z,3.44
2019-01-04T18:06:20.328Z,3.43
2019-01-04T18:08:46.642Z,3.44
2019-01-04T18:11:12.852Z,3.43
2019-01-04T18:13:38.823Z,3.45
2019-01-04T18:16:05.004Z,3.44
2019-01-04T18:18:31.170Z,3.44
2019-01-04T18:20:57.257Z,3.44
2019-01-04T18:23:23.642Z,3.45
2019-01-04T18:25:49.849Z,3.44
2019-01-04T18:28:16.178Z,3.42
2019-01-04T18:30:42.147Z,3.41
2019-01-04T18:33:08.311Z,3.40
2019-01-04T18:35:34.681Z,3.38
2019-01-04T18:38:01.620Z,3.39
2019-01-04T18:40:28.494Z,3.41
2019-01-04T18:42:55.001Z,3.41
2019-01-04T18:45:21.059Z,3.42
2019-01-04T18:47:49.962Z,3.43
2019-01-04T18:50:15.961Z,3.46
2019-01-04T18:52:41.910Z,3.46
2019-01-04T18:55:08.563Z,3.48
2019-01-04T18:57:34.646Z,3.49
2019-01-04T19:00:00.614Z,3.50
2019-01-04T19:02:26.639Z,3.47
2019-01-04T19:04:52.592Z,3.46
2019-01-04T19:07:18.936Z,3.46
2019-01-04T19:09:44.935Z,3.48
2019-01-04T19:12:10.888Z,3.49
2019-01-04T19:14:38.445Z,3.52
2019-01-04T19:17:05.347Z,3.56
2019-01-04T19:19:31.506Z,3.57
2019-01-04T19:21:57.469Z,3.59
2019-01-04T19:24:23.495Z,3.61
2019-01-04T19:26:49.459Z,3.58
2019-01-04T19:29:15.817Z,3.58
2019-01-04T19:31:42.167Z,3.58
2019-01-04T19:34:08.464Z,3.58
2019-01-04T19:36:34.529Z,3.58
2019-01-04T19:39:01.446Z,3.61
2019-01-04T19:41:27.404Z,3.63
2019-01-04T19:43:53.503Z,3.63
2019-01-04T19:46:19.499Z,3.64
2019-01-04T19:48:45.451Z,3.67
2019-01-04T19:51:11.405Z,3.67
2019-01-04T19:53:37.397Z,3.67
2019-01-04T19:56:03.843Z,3.70
2019-01-04T19:58:29.789Z,3.70
2019-01-04T20:00:55.803Z,3.69
2019-01-04T20:03:21.739Z,3.71
2019-01-04T20:06:08.862Z,3.74
2019-01-04T20:08:44.266Z,3.80
2019-01-04T20:11:49.940Z,3.86
2019-01-04T20:14:47.528Z,3.84
2019-01-04T20:17:30.503Z,3.84
2019-01-04T20:20:01.203Z,3.81
2019-01-04T20:22:37.902Z,3.82
2019-01-04T20:25:06.063Z,3.80
2019-01-04T20:27:36.717Z,3.80
2019-01-04T20:30:12.215Z,3.79
2019-01-04T20:32:42.988Z,3.78
2019-01-04T20:35:27.862Z,3.80
2019-01-04T20:37:55.742Z,3.80
2019-01-04T20:40:40.290Z,3.81
2019-01-04T20:43:11.035Z,3.81
2019-01-04T20:45:40.809Z,3.79
2019-01-04T20:48:08.725Z,3.79
2019-01-04T20:50:53.247Z,3.79
2019-01-04T20:53:30.982Z,3.77
2019-01-04T20:55:58.853Z,3.79
2019-01-04T20:58:41.482Z,3.81
2019-01-04T21:01:14.866Z,3.82
2019-01-04T21:03:54.832Z,3.85
2019-01-04T21:06:35.019Z,3.90
2019-01-04T21:09:22.045Z,3.99
2019-01-04T21:11:56.307Z,3.99
2019-01-04T21:14:27.016Z,3.96
2019-01-04T21:16:54.914Z,3.95
2019-01-04T21:19:26.648Z,3.98
2019-01-04T21:21:54.669Z,3.96
2019-01-04T21:24:38.106Z,3.94
2019-01-04T21:27:21.190Z,3.92
2019-01-04T21:30:06.341Z,3.93
2019-01-04T21:32:43.380Z,3.98
2019-01-04T21:35:18.285Z,4.02
2019-01-04T21:37:58.245Z,4.07
2019-01-04T21:40:28.225Z,4.10
2019-01-04T21:43:12.702Z,4.11
2019-01-04T21:45:49.464Z,4.11
2019-01-04T21:48:20.231Z,4.14
2019-01-04T21:50:49.745Z,4.18
2019-01-04T21:53:34.283Z,4.17
2019-01-04T21:56:20.289Z,4.19
2019-01-04T21:58:53.798Z,4.18
2019-01-04T22:01:27.442Z,4.14
2019-01-04T22:04:12.042Z,4.12
2019-01-04T22:06:53.260Z,4.15
2019-01-04T22:10:11.226Z,4.16
2019-01-04T22:12:57.862Z,4.16
2019-01-04T22:15:34.964Z,4.10
2019-01-04T22:18:03.963Z,4.08
2019-01-04T22:20:48.741Z,4.10
2019-01-04T22:23:33.298Z,4.14
2019-01-04T22:26:05.059Z,4.19
2019-01-04T22:28:35.984Z,4.23
2019-01-04T22:31:03.901Z,4.22
2019-01-04T22:33:50.640Z,4.20
2019-01-04T22:36:35.223Z,4.23
2019-01-04T22:39:03.240Z,4.26
2019-01-04T22:41:31.178Z,4.27
2019-01-04T22:44:04.300Z,4.30
2019-01-04T22:46:44.239Z,4.33
2019-01-04T22:49:27.255Z,4.34
2019-01-04T22:51:57.969Z,4.34
2019-01-04T22:54:38.860Z,4.36
2019-01-04T22:57:11.162Z,4.32
2019-01-04T22:59:44.645Z,4.25
2019-01-04T23:02:31.919Z,4.28
2019-01-04T23:05:02.824Z,4.30
2019-01-04T23:07:43.346Z,4.31
2019-01-04T23:10:11.228Z,4.30
2019-01-04T23:12:57.095Z,4.27
2019-01-04T23:15:30.890Z,4.27
2019-01-04T23:18:01.303Z,4.31
2019-01-04T23:20:29.160Z,4.35
2019-01-04T23:23:03.025Z,4.40
2019-01-04T23:25:31.014Z,4.42
2019-01-04T23:28:05.077Z,4.45
2019-01-04T23:30:49.437Z,4.46
2019-01-04T23:33:20.143Z,4.46
2019-01-04T23:35:54.089Z,4.50
2019-01-04T23:38:22.010Z,4.54
2019-01-04T23:44:04.048Z,4.52
2019-01-04T23:46:50.124Z,4.57
2019-01-04T23:49:34.755Z,4.60
2019-01-04T23:52:08.395Z,4.62
2019-01-04T23:54:42.406Z,4.66
2019-01-04T23:57:12.016Z,4.69
2019-01-04T23:59:39.868Z,4.71
